Teuge International Airport

EHTE · Gheldria, Paesi Bassi

6 ottobre 2022

Tempo Codice Tempo metereologico Temp. Vista Base nuvolosa Vento METAR/SPECI
19:25
V
12 °C 10 km+ - Var Var 2 kt METAR EHVK 061725Z AUTO VRB02KT 9999 NCD 12/07 Q1029 BLU
18:55
V
13 °C 10 km+ - 230° 230° 4 kt METAR EHVK 061655Z AUTO 23004KT 200V290 9999 NCD 13/07 Q1029 BLU
18:25
V
15 °C 10 km+ - 240° 240° 7 kt METAR EHVK 061625Z AUTO 24007KT 9999 NCD 15/07 Q1029 BLU
17:55
V
16 °C 10 km+ - 230° 230° 10 kt METAR EHVK 061555Z AUTO 23010KT 210V270 9999 SCT310 16/07 Q1029 BLU
17:25
V
17 °C 10 km+ - 230° 230° 10 kt METAR EHVK 061525Z AUTO 23010KT 9999 FEW046 17/07 Q1029 BLU
16:55
V
17 °C 10 km+ - 220° 220° 12 kt METAR EHVK 061455Z AUTO 22012KT 200V260 9999 FEW046 17/06 Q1029 BLU
16:25
V
17 °C 10 km+ - 230° 230° 10 kt METAR EHVK 061425Z AUTO 23010KT 200V270 9999 FEW044 17/06 Q1029 BLU
16:05
V
17 °C 10 km+ - 240° 240° 11 kt METAR EHVK 061405Z AUTO 24011KT 220V290 9999 NCD 17/06 Q1029 BLU
15:55
V
17 °C 10 km+ - 230° 230° 11 kt METAR EHVK 061355Z AUTO 23011KT 210V270 9999 FEW045 17/07 Q1029 BLU NOSIG
15:25
V
17 °C 10 km+ - 230° 230° 12 kt METAR EHVK 061325Z AUTO 23012KT 220V280 9999 FEW040 17/06 Q1029 BLU NOSIG
14:55
V
17 °C 10 km+ - 230° 230° 12 kt METAR EHVK 061255Z AUTO 23012KT 190V260 9999 NCD 17/07 Q1029 BLU NOSIG
14:25
V
17 °C 10 km+ - 240° 240° 11 kt METAR EHVK 061225Z AUTO 24011KT 200V280 9999 NCD 17/08 Q1029 BLU NOSIG
13:55
V
16 °C 10 km+ - 260° 260° 10 kt METAR EHVK 061155Z AUTO 26010KT 220V290 9999 FEW034 16/08 Q1030 BLU NOSIG
13:25
V
16 °C 10 km+ - 260° 260° 8 kt METAR EHVK 061125Z AUTO 26008KT 220V290 9999 SCT031 16/08 Q1030 BLU NOSIG
12:55
M
17 °C 10 km+ 2.900 ft 250° 250° 11 kt METAR EHVK 061055Z AUTO 25011KT 200V290 9999 OVC029 17/09 Q1029 BLU NOSIG
12:25
M
16 °C 10 km+ 2.900 ft 250° 250° 12 kt METAR EHVK 061025Z AUTO 25012KT 9999 SCT026 BKN029 16/09 Q1029 BLU NOSIG
11:55
V
15 °C 10 km+ - 240° 240° 12 kt METAR EHVK 060955Z AUTO 24012KT 210V280 9999 FEW028 15/09 Q1029 BLU NOSIG
11:25
V
14 °C 10 km+ - 220° 220° 12 kt METAR EHVK 060925Z AUTO 22012KT 9999 NCD 14/09 Q1029 BLU NOSIG
10:55
V
14 °C 10 km+ - 230° 230° 13 kt METAR EHVK 060855Z AUTO 23013KT 9999 NCD 14/09 Q1029 BLU NOSIG
10:25
V
13 °C 10 km+ - 230° 230° 11 kt METAR EHVK 060825Z AUTO 23011KT 9999 NCD 13/09 Q1028 BLU NOSIG
09:55
V
12 °C 10 km+ - 230° 230° 10 kt METAR EHVK 060755Z AUTO 23010KT 9999 NCD 12/09 Q1028 BLU NOSIG
09:25
V
11 °C 10 km+ - 230° 230° 10 kt METAR EHVK 060725Z AUTO 23010KT 9999 NCD 11/09 Q1027 BLU NOSIG
08:55
V
10 °C 10 km+ - 230° 230° 8 kt METAR EHVK 060655Z AUTO 23008KT 9999 NCD 10/08 Q1027 BLU NOSIG
08:25
V
10 °C 10 km+ - 230° 230° 9 kt METAR EHVK 060625Z AUTO 23009KT 9999 NCD 10/08 Q1027 BLU NOSIG
07:55
V
9 °C 10 km+ - 230° 230° 8 kt METAR EHVK 060555Z AUTO 23008KT 9999 NCD 09/08 Q1026 BLU
07:25
V
9 °C 10 km+ - 230° 230° 8 kt METAR EHVK 060525Z AUTO 23008KT 9999 NCD 09/08 Q1026 BLU
06:55
V
10 °C 10 km+ - 230° 230° 8 kt METAR EHVK 060455Z AUTO 23008KT 9999 NCD 10/08 Q1025 BLU
06:25
V
9 °C 10 km+ - 230° 230° 8 kt METAR EHVK 060425Z AUTO 23008KT 9999 NCD 09/08 Q1025 BLU
06:18
V
9 °C 10 km+ - 230° 230° 7 kt METAR EHVK 060418Z AUTO 23007KT 9999 NCD 09/08 Q1025 BLU
05:55
V
10 °C 10 km+ - 230° 230° 8 kt METAR EHVK 060355Z AUTO 23008KT 9999 NCD 10/08 Q1024 BLU
05:25
V
11 °C 10 km+ - 230° 230° 9 kt METAR EHVK 060325Z AUTO 23009KT 9999 NCD 11/08 Q1024 BLU
04:55
V
11 °C 10 km+ - 240° 240° 9 kt METAR EHVK 060255Z AUTO 24009KT 9999 NCD 11/09 Q1023 BLU
04:25
V
12 °C 10 km+ 22.000 ft 240° 240° 9 kt METAR EHVK 060225Z AUTO 24009KT 9999 FEW036 BKN220 BKN310 12/09 Q1023 BLU
03:55
V
11 °C 10 km+ - 230° 230° 9 kt METAR EHVK 060155Z AUTO 23009KT 9999 FEW035 11/09 Q1023 BLU
03:25
V
11 °C 10 km+ - 230° 230° 9 kt METAR EHVK 060125Z AUTO 23009KT 9999 FEW035 11/09 Q1022 BLU
02:55
V
13 °C 10 km+ - 240° 240° 11 kt METAR EHVK 060055Z AUTO 24011KT 9999 FEW035 13/10 Q1022 BLU
02:25
V
13 °C 10 km+ - 240° 240° 10 kt METAR EHVK 060025Z AUTO 24010KT 9999 NCD 13/10 Q1021 BLU RMK CB INFO NOT AVBL
01:55
V
14 °C 10 km+ - 240° 240° 10 kt METAR EHVK 052355Z AUTO 24010KT 210V270 9999 NCD 14/10 Q1021 BLU
01:25
V
14 °C 10 km+ - 240° 240° 9 kt METAR EHVK 052325Z AUTO 24009KT 9999 NCD 14/11 Q1020 BLU
00:55
V
14 °C 10 km+ - 240° 240° 11 kt METAR EHVK 052255Z AUTO 24011KT 9999 NCD 14/11 Q1019 BLU
00:25
V
15 °C 10 km+ 5.700 ft 240° 240° 12 kt METAR EHVK 052225Z AUTO 24012KT 9999 BKN057 OVC063 15/12 Q1019 BLU

5 ottobre 2022

Tempo Codice Tempo metereologico Temp. Vista Base nuvolosa Vento METAR/SPECI
23:56
V
15 °C 10 km+ 4.300 ft 250° 250° 14 - 24 kt METAR EHVK 052156Z AUTO 25014G24KT 220V280 9999 DZ FEW014 FEW015CB SCT025 BKN043 15/13 Q1018 BLU
23:55
V
16 °C 10 km+ 4.500 ft 250° 250° 14 - 24 kt METAR EHVK 052155Z AUTO 25014G24KT 220V280 9999 DZ FEW015CB SCT024 BKN045 16/12 Q1018 WHT
23:25
M
17 °C 10 km+ 2.300 ft 240° 240° 14 kt METAR EHVK 052125Z AUTO 24014KT 9999 SCT017 BKN023 BKN028 17/13 Q1018 WHT
23:03
M
17 °C 10 km+ 2.200 ft 240° 240° 14 kt METAR EHVK 052103Z AUTO 24014KT 9999 SCT018 BKN022 OVC057 17/13 Q1017 WHT
22:59
V
17 °C 10 km+ 5.600 ft 240° 240° 14 kt METAR EHVK 052059Z AUTO 24014KT 9999 SCT019 OVC056 17/13 Q1017 WHT
22:55
V
17 °C 10 km+ 5.600 ft 240° 240° 14 kt METAR EHVK 052055Z AUTO 24014KT 9999 FEW021 OVC056 17/13 Q1017 BLU
22:25
V
17 °C 10 km+ 5.200 ft 230° 230° 19 kt METAR EHVK 052025Z AUTO 23019KT 9999 SCT048 OVC052 17/13 Q1016 BLU
22:15
V
17 °C 10 km+ 4.800 ft 240° 240° 18 kt METAR EHVK 052015Z AUTO 24018KT 200V260 9999 FEW020 SCT042 OVC048 17/13 Q1016 BLU
22:07
M
17 °C 10 km+ 2.300 ft 230° 230° 21 - 31 kt METAR EHVK 052007Z AUTO 23021G31KT 190V260 9999 -RA SCT020 OVC023 17/13 Q1016 WHT
21:59
M
18 °C 10 km+ 2.700 ft 230° 230° 18 kt METAR EHVK 051959Z AUTO 23018KT 180V260 9999 SCT024 OVC027 18/13 Q1016 WHT
21:55
M
18 °C 10 km+ 2.800 ft 220° 220° 18 kt METAR EHVK 051955Z AUTO 22018KT 180V250 9999 SCT025 BKN028 OVC032 18/13 Q1016 BLU
21:25
V
18 °C 10 km+ 3.200 ft 210° 210° 15 kt METAR EHVK 051925Z AUTO 21015KT 160V250 9999 BKN032 OVC037 18/12 Q1015 BLU
20:55
V
18 °C 10 km+ 3.100 ft 210° 210° 13 kt METAR EHVK 051855Z AUTO 21013KT 160V240 9999 OVC031 18/12 Q1015 BLU
20:25
V
18 °C 10 km+ 3.200 ft 200° 200° 12 kt METAR EHVK 051825Z AUTO 20012KT 150V240 9999 OVC032 18/11 Q1015 BLU
19:55
V
18 °C 10 km+ 3.400 ft 210° 210° 14 kt METAR EHVK 051755Z AUTO 21014KT 170V240 9999 OVC034 18/11 Q1015 BLU
19:25
M
18 °C 10 km+ 2.900 ft 210° 210° 17 kt METAR EHVK 051725Z AUTO 21017KT 180V250 9999 OVC029 18/11 Q1014 BLU
18:55
V
17 °C 10 km+ 3.000 ft 210° 210° 16 kt METAR EHVK 051655Z AUTO 21016KT 170V250 9999 FEW024 OVC030 17/11 Q1014 BLU
18:25
V
17 °C 10 km+ 3.300 ft 220° 220° 17 kt METAR EHVK 051625Z AUTO 22017KT 180V250 9999 FEW026 OVC033 17/11 Q1014 BLU
17:55
V
17 °C 10 km+ 4.100 ft 230° 230° 21 - 32 kt METAR EHVK 051555Z AUTO 23021G32KT 9999 FEW037 BKN041 17/10 Q1014 BLU
17:25
V
19 °C 10 km+ 3.900 ft 240° 240° 24 kt METAR EHVK 051525Z AUTO 24024KT 9999 SCT030 BKN039 19/12 Q1013 BLU
16:55
V
20 °C 10 km+ 3.800 ft 230° 230° 19 kt METAR EHVK 051455Z AUTO 23019KT 190V260 9999 SCT034 BKN038 20/12 Q1013 BLU
16:25
V
21 °C 10 km+ 4.000 ft 220° 220° 17 - 27 kt METAR EHVK 051425Z AUTO 22017G27KT 190V260 9999 FEW033 BKN040 21/13 Q1013 BLU
16:07
V
21 °C 10 km+ 3.800 ft 220° 220° 15 kt METAR EHVK 051407Z AUTO 22015KT 200V260 9999 FEW034 BKN038 BKN045 21/13 Q1013 BLU
15:55
V
21 °C 10 km+ 3.200 ft 220° 220° 16 kt METAR EHVK 051355Z AUTO 22016KT 190V250 9999 BKN032 BKN040 21/14 Q1013 BLU BECMG 23014G25KT
15:25
V
21 °C 10 km+ 3.200 ft 210° 210° 15 kt METAR EHVK 051325Z AUTO 21015KT 180V240 9999 BKN032 BKN042 21/13 Q1013 BLU BECMG 23014G25KT
14:55
V
21 °C 10 km+ 3.000 ft 220° 220° 19 kt METAR EHVK 051255Z AUTO 22019KT 180V250 9999 BKN030 21/13 Q1013 BLU BECMG 23014G25KT
14:25
M
20 °C 10 km+ 2.800 ft 210° 210° 18 kt METAR EHVK 051225Z AUTO 21018KT 160V240 9999 BKN028 BKN031 20/13 Q1013 BLU BECMG 23014G25KT
13:55
M
19 °C 10 km+ 2.900 ft 210° 210° 18 kt METAR EHVK 051155Z AUTO 21018KT 170V250 9999 SCT026 BKN029 19/13 Q1013 BLU BECMG 23014G25KT
13:25
M
18 °C 10 km+ 2.600 ft 210° 210° 18 - 29 kt METAR EHVK 051125Z AUTO 21018G29KT 180V250 9999 BKN026 OVC029 18/13 Q1014 BLU BECMG 23014G25KT
12:55
V
18 °C 10 km+ 3.000 ft 200° 200° 14 kt METAR EHVK 051055Z AUTO 20014KT 160V240 9999 SCT025 OVC030 18/13 Q1014 BLU BECMG 23014G25KT
12:25
V
17 °C 10 km+ 3.100 ft 190° 190° 12 kt METAR EHVK 051025Z AUTO 19012KT 150V230 9999 FEW024 OVC031 17/12 Q1014 BLU BECMG 23014G25KT
11:55
V
17 °C 10 km+ 3.400 ft 200° 200° 11 kt METAR EHVK 050955Z AUTO 20011KT 160V230 9999 OVC034 17/12 Q1015 BLU BECMG 23014G25KT
11:25
V
17 °C 10 km+ 3.400 ft 210° 210° 12 kt METAR EHVK 050925Z AUTO 21012KT 160V240 9999 OVC034 17/12 Q1015 BLU BECMG 23014G25KT
10:55
V
16 °C 10 km+ 3.400 ft 200° 200° 9 kt METAR EHVK 050855Z AUTO 20009KT 150V240 9999 OVC034 16/12 Q1015 BLU BECMG 23014G25KT
10:25
V
16 °C 10 km+ 3.200 ft 200° 200° 9 kt METAR EHVK 050825Z AUTO 20009KT 160V230 9999 OVC032 16/12 Q1015 BLU BECMG 23014G25KT
09:55
M
15 °C 10 km+ 2.900 ft 210° 210° 10 kt METAR EHVK 050755Z AUTO 21010KT 170V230 9999 OVC029 15/11 Q1015 BLU BECMG 23014G25KT
09:25
M
15 °C 10 km+ 2.700 ft 200° 200° 9 kt METAR EHVK 050725Z AUTO 20009KT 150V230 9999 OVC027 15/11 Q1015 BLU BECMG 23014G25KT
08:55
M
14 °C 10 km+ 2.800 ft 190° 190° 8 kt METAR EHVK 050655Z AUTO 19008KT 160V230 9999 OVC028 14/11 Q1015 BLU BECMG 23014G25KT
08:25
M
14 °C 10 km+ 2.600 ft 200° 200° 9 kt METAR EHVK 050625Z AUTO 20009KT 150V220 9999 OVC026 14/11 Q1015 BLU BECMG 23014G25KT
08:12
M
14 °C 10 km+ 2.500 ft 190° 190° 9 kt METAR EHVK 050612Z AUTO 19009KT 160V230 9999 OVC025 14/11 Q1015 BLU BECMG 23014G25KT
08:08
M
14 °C 10 km+ 2.400 ft 190° 190° 9 kt METAR EHVK 050608Z AUTO 19009KT 160V230 9999 OVC024 14/11 Q1015 WHT BECMG 23014G25KT
07:55
M
14 °C 10 km+ 2.500 ft 190° 190° 9 kt METAR EHVK 050555Z AUTO 19009KT 160V220 9999 OVC025 14/11 Q1015 BLU BECMG 23014G25KT
07:25
M
14 °C 10 km+ 2.500 ft 200° 200° 9 kt METAR EHVK 050525Z AUTO 20009KT 160V230 9999 OVC025 14/11 Q1015 BLU
06:55
M
14 °C 10 km+ 2.700 ft 200° 200° 9 kt METAR EHVK 050455Z AUTO 20009KT 170V240 9999 OVC027 14/11 Q1016 BLU
06:25
M
14 °C 10 km+ 2.900 ft 190° 190° 8 kt METAR EHVK 050425Z AUTO 19008KT 150V230 9999 OVC029 14/11 Q1016 BLU
05:55
M
14 °C 10 km+ 2.800 ft 200° 200° 8 kt METAR EHVK 050355Z AUTO 20008KT 130V230 9999 OVC028 14/11 Q1016 BLU
05:25
M
14 °C 10 km+ 2.800 ft 200° 200° 9 kt METAR EHVK 050325Z AUTO 20009KT 140V240 9999 OVC028 14/11 Q1016 BLU
04:55
M
14 °C 10 km+ 2.700 ft 190° 190° 8 kt METAR EHVK 050255Z AUTO 19008KT 150V240 9999 FEW023 OVC027 14/11 Q1016 BLU
04:25
V
14 °C 10 km+ 3.100 ft 190° 190° 8 kt METAR EHVK 050225Z AUTO 19008KT 160V230 9999 OVC031 14/11 Q1016 BLU
03:55
V
14 °C 10 km+ 3.300 ft 200° 200° 7 kt METAR EHVK 050155Z AUTO 20007KT 170V240 9999 OVC033 14/11 Q1017 BLU
03:25
V
14 °C 10 km+ 3.400 ft 200° 200° 7 kt METAR EHVK 050125Z AUTO 20007KT 160V230 9999 OVC034 14/11 Q1017 BLU
02:55
V
14 °C 10 km+ 3.400 ft 200° 200° 7 kt METAR EHVK 050055Z AUTO 20007KT 160V230 9999 OVC034 14/11 Q1017 BLU
02:25
V
14 °C 10 km+ 3.500 ft 200° 200° 7 kt METAR EHVK 050025Z AUTO 20007KT 160V230 9999 OVC035 14/11 Q1017 BLU
01:55
V
15 °C 10 km+ 3.000 ft 200° 200° 7 kt METAR EHVK 042355Z AUTO 20007KT 160V230 9999 OVC030 15/11 Q1017 BLU
01:25
V
15 °C 10 km+ 3.000 ft 190° 190° 7 kt METAR EHVK 042325Z AUTO 19007KT 150V230 9999 OVC030 15/11 Q1018 BLU
00:55
V
15 °C 10 km+ 3.000 ft 200° 200° 7 kt METAR EHVK 042255Z AUTO 20007KT 160V220 9999 OVC030 15/11 Q1018 BLU
00:25
V
15 °C 10 km+ 3.100 ft 210° 210° 7 kt METAR EHVK 042225Z AUTO 21007KT 170V240 9999 OVC031 15/11 Q1018 BLU

4 ottobre 2022

Tempo Codice Tempo metereologico Temp. Vista Base nuvolosa Vento METAR/SPECI
23:55
V
15 °C 10 km+ 3.400 ft 210° 210° 7 kt METAR EHVK 042155Z AUTO 21007KT 170V230 9999 OVC034 15/11 Q1018 BLU
23:25
V
15 °C 10 km+ 3.100 ft 210° 210° 7 kt METAR EHVK 042125Z AUTO 21007KT 170V240 9999 OVC031 15/11 Q1018 BLU
22:55
V
15 °C 10 km+ 3.100 ft 200° 200° 9 kt METAR EHVK 042055Z AUTO 20009KT 170V230 9999 OVC031 15/11 Q1018 BLU
22:25
V
15 °C 10 km+ 3.200 ft 200° 200° 8 kt METAR EHVK 042025Z AUTO 20008KT 170V230 9999 OVC032 15/11 Q1018 BLU
21:55
V
15 °C 10 km+ 3.300 ft 190° 190° 8 kt METAR EHVK 041955Z AUTO 19008KT 160V220 9999 OVC033 15/11 Q1018 BLU
21:25
V
14 °C 10 km+ 35.000 ft 200° 200° 6 kt METAR EHVK 041925Z AUTO 20006KT 170V230 9999 SCT039 OVC350 14/10 Q1018 BLU
20:55
V
15 °C 10 km+ 38.000 ft 190° 190° 7 kt METAR EHVK 041855Z AUTO 19007KT 160V220 9999 OVC380 15/10 Q1018 BLU
20:25
V
15 °C 10 km+ 3.500 ft 190° 190° 6 kt METAR EHVK 041825Z AUTO 19006KT 130V230 9999 OVC035 15/11 Q1019 BLU
19:55
V
15 °C 10 km+ 30.000 ft 190° 190° 6 kt METAR EHVK 041755Z AUTO 19006KT 9999 OVC300 15/10 Q1019 BLU
19:25
V
15 °C 10 km+ 29.000 ft 190° 190° 5 kt METAR EHVK 041725Z AUTO 19005KT 160V220 9999 BKN290 OVC340 15/11 Q1018 BLU
18:55
V
16 °C 10 km+ 26.000 ft 200° 200° 4 kt METAR EHVK 041655Z AUTO 20004KT 9999 OVC260 16/11 Q1018 BLU
18:25
V
17 °C 10 km+ 28.000 ft 190° 190° 5 kt METAR EHVK 041625Z AUTO 19005KT 9999 OVC280 17/11 Q1018 BLU
17:55
V
17 °C 10 km+ 28.000 ft 210° 210° 8 kt METAR EHVK 041555Z AUTO 21008KT 9999 OVC280 17/11 Q1018 BLU
17:25
V
18 °C 10 km+ 30.000 ft 200° 200° 9 kt METAR EHVK 041525Z AUTO 20009KT 160V230 9999 OVC300 18/10 Q1018 BLU
16:55
V
18 °C 10 km+ 31.000 ft 200° 200° 10 kt METAR EHVK 041455Z AUTO 20010KT 160V230 9999 OVC310 18/10 Q1018 BLU
Dati più vecchi

Noi e le terze parti seguiamo il tuo comportamento in internet sul nostro sito web con i cookie. Se continui, riteniamo che tu sia d'accordo con la nostra politica sui cookie. Per saperne di più